createdAt,value
2018-09-25T00:00:45.319Z,18.80
2018-09-25T00:02:16.889Z,18.72
2018-09-25T00:03:48.463Z,18.62
2018-09-25T00:05:20.035Z,18.66
2018-09-25T00:08:23.178Z,18.50
2018-09-25T00:09:54.751Z,18.57
2018-09-25T00:11:26.324Z,18.44
2018-09-25T00:12:57.897Z,18.48
2018-09-25T00:14:29.469Z,18.42
2018-09-25T00:16:01.042Z,18.51
2018-09-25T00:17:32.715Z,18.52
2018-09-25T00:19:04.191Z,18.52
2018-09-25T00:20:35.758Z,18.48
2018-09-25T00:22:07.331Z,18.54
2018-09-25T00:23:38.904Z,18.58
2018-09-25T00:25:10.475Z,18.55
2018-09-25T00:26:42.046Z,18.55
2018-09-25T00:28:14.972Z,18.60
2018-09-25T00:29:45.621Z,18.54
2018-09-25T00:31:16.766Z,18.70
2018-09-25T00:32:48.338Z,18.66
2018-09-25T00:34:19.908Z,18.70
2018-09-25T00:35:51.681Z,18.82
2018-09-25T00:37:23.054Z,18.75
2018-09-25T00:38:55.147Z,18.76
2018-09-25T00:40:26.198Z,18.84
2018-09-25T00:41:57.771Z,18.90
2018-09-25T00:43:29.343Z,18.95
2018-09-25T00:45:00.919Z,19.06
2018-09-25T00:46:32.495Z,19.04
2018-09-25T00:48:04.060Z,19.04
2018-09-25T00:49:35.633Z,19.08
2018-09-25T00:51:07.205Z,18.95
2018-09-25T00:52:38.779Z,19.04
2018-09-25T00:54:10.461Z,19.10
2018-09-25T00:55:41.924Z,19.11
2018-09-25T00:57:13.498Z,19.10
2018-09-25T00:58:45.076Z,19.21
2018-09-25T01:00:16.744Z,19.13
2018-09-25T01:03:19.809Z,19.25
2018-09-25T01:04:51.881Z,19.11
2018-09-25T01:06:23.083Z,18.95
2018-09-25T01:07:54.512Z,18.95
2018-09-25T01:09:26.079Z,18.78
2018-09-25T01:12:29.324Z,18.81
2018-09-25T01:14:00.797Z,18.81
2018-09-25T01:15:32.373Z,18.81
2018-09-25T01:17:03.941Z,18.78
2018-09-25T01:18:35.515Z,18.81
2018-09-25T01:20:07.088Z,18.90
2018-09-25T01:21:38.661Z,18.85
2018-09-25T01:23:10.248Z,18.90
2018-09-25T01:24:41.806Z,18.94
2018-09-25T01:26:13.377Z,19.02
2018-09-25T01:27:44.950Z,18.95
2018-09-25T01:29:16.522Z,18.95
2018-09-25T01:30:48.195Z,18.94
2018-09-25T01:32:19.669Z,19.00
2018-09-25T01:33:51.239Z,18.94
2018-09-25T01:35:22.812Z,18.99
2018-09-25T01:36:54.385Z,19.02
2018-09-25T01:38:25.957Z,18.99
2018-09-25T01:39:57.532Z,19.06
2018-09-25T01:41:29.110Z,19.04
2018-09-25T01:43:00.678Z,19.13
2018-09-25T01:44:32.247Z,18.99
2018-09-25T01:46:04.235Z,19.18
2018-09-25T01:47:35.393Z,19.22
2018-09-25T01:49:07.068Z,19.11
2018-09-25T01:50:38.538Z,19.11
2018-09-25T01:52:10.113Z,19.19
2018-09-25T01:53:41.988Z,19.18
2018-09-25T01:55:13.265Z,19.13
2018-09-25T01:56:44.829Z,19.11
2018-09-25T01:58:16.401Z,19.23
2018-09-25T02:01:19.549Z,19.08
2018-09-25T02:02:51.427Z,19.04
2018-09-25T02:04:22.698Z,19.16
2018-09-25T02:05:54.311Z,19.13
2018-09-25T02:07:26.002Z,19.06
2018-09-25T02:08:57.410Z,18.99
2018-09-25T02:10:28.993Z,19.13
2018-09-25T02:12:00.556Z,19.07
2018-09-25T02:13:32.277Z,18.88
2018-09-25T02:15:03.700Z,18.87
2018-09-25T02:16:35.272Z,18.94
2018-09-25T02:18:06.844Z,18.87
2018-09-25T02:19:38.420Z,18.91
2018-09-25T02:21:10.150Z,18.90
2018-09-25T02:22:41.564Z,18.87
2018-09-25T02:24:13.138Z,18.90
2018-09-25T02:25:45.579Z,18.84
2018-09-25T02:27:16.277Z,18.76
2018-09-25T02:28:47.849Z,18.73
2018-09-25T02:30:19.425Z,18.66
2018-09-25T02:31:51.295Z,18.67
2018-09-25T02:33:22.568Z,18.54
2018-09-25T02:36:25.710Z,18.62
2018-09-25T02:37:57.308Z,18.55
2018-09-25T02:39:28.863Z,18.62
2018-09-25T02:41:00.426Z,18.54
2018-09-25T02:42:31.998Z,18.48
2018-09-25T02:44:03.820Z,18.44
2018-09-25T02:45:35.146Z,18.42
2018-09-25T02:47:06.713Z,18.48
2018-09-25T02:48:38.284Z,18.37
2018-09-25T02:50:09.859Z,18.36
2018-09-25T02:51:41.427Z,18.29
2018-09-25T02:53:13.003Z,18.27
2018-09-25T02:54:44.571Z,18.29
2018-09-25T02:56:16.143Z,18.27
2018-09-25T02:59:19.288Z,18.21
2018-09-25T03:00:51.378Z,18.18
2018-09-25T03:02:22.629Z,18.20
2018-09-25T03:03:54.001Z,18.05
2018-09-25T03:05:25.573Z,18.08
2018-09-25T03:06:57.155Z,18.05
2018-09-25T03:08:28.715Z,18.15
2018-09-25T03:10:00.288Z,18.14
2018-09-25T03:11:31.858Z,18.18
2018-09-25T03:13:03.490Z,18.36
2018-09-25T03:14:35.001Z,18.37
2018-09-25T03:16:06.575Z,18.52
2018-09-25T03:17:38.151Z,18.50
2018-09-25T03:19:09.737Z,18.54
2018-09-25T03:20:41.390Z,18.58
2018-09-25T03:22:12.860Z,18.55
2018-09-25T03:25:16.013Z,18.70
2018-09-25T03:26:47.576Z,18.69
2018-09-25T03:28:19.148Z,18.75
2018-09-25T03:29:50.720Z,18.80
2018-09-25T03:31:22.292Z,18.78
2018-09-25T03:32:53.980Z,18.80
2018-09-25T03:34:25.436Z,18.91
2018-09-25T03:35:57.051Z,18.85
2018-09-25T03:37:28.582Z,18.90
2018-09-25T03:39:00.254Z,18.82
2018-09-25T03:40:31.726Z,18.90
2018-09-25T03:42:03.301Z,18.98
2018-09-25T03:43:34.872Z,18.94
2018-09-25T03:45:06.447Z,19.02
2018-09-25T03:46:38.016Z,19.02
2018-09-25T03:48:09.590Z,19.02
2018-09-25T03:49:41.165Z,18.95
2018-09-25T03:51:12.734Z,18.92
2018-09-25T03:52:44.310Z,18.88
2018-09-25T03:54:15.880Z,18.99
2018-09-25T03:55:47.981Z,19.02
2018-09-25T03:57:19.125Z,18.99
2018-09-25T03:58:50.598Z,18.94
2018-09-25T04:00:22.181Z,18.91
2018-09-25T04:01:53.744Z,18.88
2018-09-25T04:03:25.415Z,18.87
2018-09-25T04:06:28.461Z,18.88
2018-09-25T04:08:00.034Z,19.00
2018-09-25T04:09:31.605Z,18.98
2018-09-25T04:11:03.179Z,18.98
2018-09-25T04:12:34.752Z,18.87
2018-09-25T04:14:06.323Z,18.95
2018-09-25T04:15:38.031Z,18.99
2018-09-25T04:17:09.468Z,19.00
2018-09-25T04:18:41.039Z,19.10
2018-09-25T04:20:12.614Z,19.14
2018-09-25T04:21:44.187Z,19.13
2018-09-25T04:23:15.757Z,19.13
2018-09-25T04:24:47.332Z,19.16
2018-09-25T04:26:19.052Z,19.14
2018-09-25T04:27:50.474Z,19.16
2018-09-25T04:29:22.048Z,19.11
2018-09-25T04:30:53.824Z,19.11
2018-09-25T04:32:25.192Z,19.11
2018-09-25T04:33:57.165Z,19.18
2018-09-25T04:35:28.337Z,19.22
2018-09-25T04:36:59.929Z,19.22
2018-09-25T04:38:31.484Z,19.11
2018-09-25T04:40:03.056Z,19.13
2018-09-25T04:41:34.627Z,19.14
2018-09-25T04:43:06.205Z,19.07
2018-09-25T04:44:37.772Z,18.98
2018-09-25T04:46:09.345Z,18.98
2018-09-25T04:47:40.951Z,19.16
2018-09-25T04:49:12.492Z,19.11
2018-09-25T04:50:44.062Z,19.10
2018-09-25T04:52:15.736Z,19.04
2018-09-25T04:53:47.207Z,19.10
2018-09-25T04:55:18.780Z,19.06
2018-09-25T04:56:50.879Z,18.92
2018-09-25T04:58:21.944Z,18.87
2018-09-25T04:59:53.499Z,18.87
2018-09-25T05:01:25.069Z,18.95
2018-09-25T05:02:56.643Z,18.90
2018-09-25T05:04:28.519Z,19.00
2018-09-25T05:05:59.787Z,19.04
2018-09-25T05:07:31.360Z,18.99
2018-09-25T05:09:02.934Z,18.98
2018-09-25T05:10:34.605Z,18.91
2018-09-25T05:12:06.085Z,18.90
2018-09-25T05:13:37.654Z,18.85
2018-09-25T05:15:09.223Z,18.87
2018-09-25T05:16:40.946Z,18.88
2018-09-25T05:18:12.387Z,18.88
2018-09-25T05:19:43.947Z,18.92
2018-09-25T05:21:15.515Z,18.88
2018-09-25T05:22:47.084Z,18.87
2018-09-25T05:24:18.657Z,19.02
2018-09-25T05:25:50.234Z,19.02
2018-09-25T05:27:21.801Z,18.99
2018-09-25T05:28:53.474Z,18.92
2018-09-25T05:30:24.947Z,18.85
2018-09-25T05:31:56.519Z,18.91
2018-09-25T05:33:28.092Z,18.92
2018-09-25T05:34:59.765Z,18.98
2018-09-25T05:36:31.241Z,18.98
2018-09-25T05:38:02.817Z,19.02
2018-09-25T05:39:34.382Z,19.02
2018-09-25T05:41:05.987Z,18.99
2018-09-25T05:42:37.528Z,18.98
2018-09-25T05:44:09.099Z,18.92
2018-09-25T05:45:41.194Z,18.85
2018-09-25T05:47:12.343Z,18.90
2018-09-25T05:48:43.834Z,18.92
2018-09-25T05:50:15.389Z,18.88
2018-09-25T05:51:46.961Z,18.90
2018-09-25T05:53:18.536Z,18.85
2018-09-25T05:54:50.106Z,18.98
2018-09-25T05:56:21.680Z,19.00
2018-09-25T05:57:53.257Z,19.00
2018-09-25T05:59:24.824Z,18.81
2018-09-25T06:00:56.429Z,18.81
2018-09-25T06:02:27.979Z,18.81
2018-09-25T06:03:59.541Z,18.90
2018-09-25T06:07:03.090Z,18.87
2018-09-25T06:08:34.260Z,18.84
2018-09-25T06:10:05.833Z,18.91
2018-09-25T06:11:37.404Z,18.87
2018-09-25T06:13:08.979Z,18.90
2018-09-25T06:14:40.549Z,18.90
2018-09-25T06:16:12.122Z,18.91
2018-09-25T06:19:15.418Z,18.91
2018-09-25T06:20:46.842Z,18.87
2018-09-25T06:22:18.413Z,18.84
2018-09-25T06:23:49.986Z,18.95
2018-09-25T06:25:21.669Z,18.95
2018-09-25T06:26:53.655Z,18.92
2018-09-25T06:28:24.702Z,18.90
2018-09-25T06:29:56.275Z,18.95
2018-09-25T06:31:27.850Z,18.84
2018-09-25T06:32:59.941Z,18.88
2018-09-25T06:34:31.000Z,18.88
2018-09-25T06:36:02.567Z,18.84
2018-09-25T06:37:34.438Z,18.82
2018-09-25T06:39:05.712Z,18.85
2018-09-25T06:40:37.283Z,18.88
2018-09-25T06:42:08.858Z,18.84
2018-09-25T06:43:40.579Z,18.87
2018-09-25T06:45:12.001Z,18.91
2018-09-25T06:46:43.574Z,18.82
2018-09-25T06:48:15.158Z,18.88
2018-09-25T06:49:47.021Z,18.90
2018-09-25T06:51:18.291Z,18.80
2018-09-25T06:52:49.864Z,18.80
2018-09-25T06:54:21.438Z,18.84
2018-09-25T06:55:53.009Z,18.85
2018-09-25T06:57:24.589Z,18.91
2018-09-25T07:00:27.727Z,18.75
2018-09-25T07:01:59.402Z,18.69
2018-09-25T07:03:30.873Z,18.81
2018-09-25T07:05:02.444Z,18.81
2018-09-25T07:06:34.322Z,18.85
2018-09-25T07:08:05.890Z,18.82
2018-09-25T07:09:37.170Z,18.90
2018-09-25T07:11:08.735Z,18.87
2018-09-25T07:12:40.308Z,18.92
2018-09-25T07:14:11.880Z,18.85
2018-09-25T07:15:43.454Z,18.87
2018-09-25T07:17:15.025Z,18.85
2018-09-25T07:18:46.598Z,18.91
2018-09-25T07:20:18.421Z,18.98
2018-09-25T07:21:49.744Z,19.04
2018-09-25T07:23:21.316Z,19.04
2018-09-25T07:24:52.948Z,18.98
2018-09-25T07:26:24.462Z,18.87
2018-09-25T07:27:56.098Z,18.90
2018-09-25T07:29:27.608Z,18.84
2018-09-25T07:30:59.188Z,18.88
2018-09-25T07:32:30.753Z,18.85
2018-09-25T07:34:02.331Z,18.92
2018-09-25T07:35:33.899Z,18.91
2018-09-25T07:37:05.471Z,18.91
2018-09-25T07:38:37.244Z,18.95
2018-09-25T07:40:08.619Z,18.91
2018-09-25T07:43:11.761Z,18.92
2018-09-25T07:44:43.635Z,18.87
2018-09-25T07:46:14.908Z,18.88
2018-09-25T07:47:46.480Z,18.85
2018-09-25T07:49:18.051Z,18.85
2018-09-25T07:50:49.938Z,18.87
2018-09-25T07:52:21.195Z,18.85
2018-09-25T07:53:52.767Z,18.82
2018-09-25T07:55:24.376Z,18.94
2018-09-25T07:56:56.520Z,18.91
2018-09-25T07:58:27.485Z,18.90
2018-09-25T07:59:59.057Z,18.95
2018-09-25T08:01:30.629Z,18.91
2018-09-25T08:03:02.247Z,18.94
2018-09-25T08:04:33.772Z,18.87
2018-09-25T08:06:05.344Z,18.91
2018-09-25T08:07:36.916Z,18.91
2018-09-25T08:09:08.758Z,18.85
2018-09-25T08:10:40.060Z,18.84
2018-09-25T08:12:11.637Z,18.88
2018-09-25T08:15:14.919Z,18.72
2018-09-25T08:16:46.348Z,18.70
2018-09-25T08:18:17.919Z,18.78
2018-09-25T08:19:49.491Z,18.63
2018-09-25T08:21:21.221Z,18.69
2018-09-25T08:22:53.145Z,18.72
2018-09-25T08:24:24.206Z,18.69
2018-09-25T08:25:55.781Z,18.66
2018-09-25T08:27:27.347Z,18.80
2018-09-25T08:28:58.921Z,18.80
2018-09-25T08:30:30.492Z,18.80
2018-09-25T08:32:02.063Z,19.02
2018-09-25T08:33:33.736Z,19.10
2018-09-25T08:35:05.271Z,19.11
2018-09-25T08:36:36.777Z,19.21
2018-09-25T08:38:08.350Z,19.32
2018-09-25T08:39:40.220Z,19.32
2018-09-25T08:41:11.495Z,19.32
2018-09-25T08:42:43.063Z,19.29
2018-09-25T08:44:14.638Z,19.25
2018-09-25T08:47:17.878Z,19.33
2018-09-25T08:48:49.351Z,19.26
2018-09-25T08:50:20.921Z,19.31
2018-09-25T08:51:52.492Z,19.29
2018-09-25T08:53:24.228Z,19.25
2018-09-25T08:54:55.637Z,19.33
2018-09-25T08:56:27.209Z,19.46
2018-09-25T08:57:59.083Z,19.40
2018-09-25T08:59:30.351Z,19.46
2018-09-25T09:01:02.037Z,19.37
2018-09-25T09:02:33.494Z,19.40
2018-09-25T09:05:36.842Z,19.47
2018-09-25T09:07:08.230Z,19.40
2018-09-25T09:10:11.356Z,19.50
2018-09-25T09:11:43.026Z,19.55
2018-09-25T09:13:14.497Z,19.59
2018-09-25T09:14:46.310Z,19.61
2018-09-25T09:19:20.786Z,19.61
2018-09-25T09:20:52.358Z,19.61
2018-09-25T09:22:23.932Z,19.51
2018-09-25T09:23:55.503Z,19.71
2018-09-25T09:25:27.598Z,19.62
2018-09-25T09:26:59.155Z,19.62
2018-09-25T09:28:30.727Z,19.55
2018-09-25T09:30:01.830Z,19.55
2018-09-25T09:31:33.643Z,19.63
2018-09-25T09:33:05.204Z,19.71
2018-09-25T09:34:36.511Z,19.71
2018-09-25T09:37:39.655Z,19.76
2018-09-25T09:39:11.228Z,19.76
2018-09-25T09:45:17.621Z,19.77
2018-09-25T09:46:49.838Z,19.80
2018-09-25T09:48:21.693Z,19.81
2018-09-25T09:49:52.257Z,19.94
2018-09-25T09:52:56.389Z,19.88
2018-09-25T09:55:58.591Z,19.94
2018-09-25T09:57:30.737Z,19.96
2018-09-25T09:59:02.272Z,20.16
2018-09-25T10:00:33.459Z,20.16
2018-09-25T10:02:05.029Z,19.87
2018-09-25T10:03:36.399Z,19.84
2018-09-25T10:05:08.175Z,19.91
2018-09-25T10:06:39.590Z,20.20
2018-09-25T10:08:11.641Z,21.22
2018-09-25T10:11:14.368Z,21.64
2018-09-25T10:12:45.857Z,22.33
2018-09-25T10:14:17.421Z,22.02
2018-09-25T10:15:48.996Z,21.53
2018-09-25T10:17:20.677Z,21.49
2018-09-25T10:20:23.925Z,21.64
2018-09-25T10:21:55.514Z,21.47
2018-09-25T10:23:27.476Z,21.07
2018-09-25T10:24:58.912Z,21.96
2018-09-25T10:26:30.228Z,22.22
2018-09-25T10:29:33.584Z,22.25
2018-09-25T10:31:04.757Z,22.79
2018-09-25T10:34:08.163Z,22.98
2018-09-25T10:35:39.701Z,23.19
2018-09-25T10:37:11.068Z,22.30
2018-09-25T10:38:43.179Z,21.98
2018-09-25T10:40:14.249Z,21.40
2018-09-25T10:41:46.264Z,22.45
2018-09-25T10:43:17.384Z,21.74
2018-09-25T10:46:20.717Z,22.40
2018-09-25T10:47:52.844Z,22.45
2018-09-25T10:49:23.702Z,21.83
2018-09-25T10:52:27.631Z,21.62
2018-09-25T10:53:58.951Z,21.34
2018-09-25T10:55:30.096Z,21.19
2018-09-25T10:57:02.197Z,21.10
2018-09-25T10:58:34.350Z,20.97
2018-09-25T11:00:05.095Z,21.61
2018-09-25T11:01:36.649Z,21.64
2018-09-25T11:04:39.486Z,22.31
2018-09-25T11:07:43.758Z,21.56
2018-09-25T11:10:45.834Z,21.12
2018-09-25T11:12:17.743Z,20.99
2018-09-25T11:13:49.158Z,21.19
2018-09-25T11:16:52.255Z,21.01
2018-09-25T11:18:23.995Z,21.01
2018-09-25T11:19:55.507Z,21.16
2018-09-25T11:22:59.022Z,21.35
2018-09-25T11:24:29.998Z,21.54
2018-09-25T11:26:02.195Z,21.59
2018-09-25T11:27:33.517Z,21.74
2018-09-25T11:29:04.728Z,21.74
2018-09-25T11:30:36.306Z,21.61
2018-09-25T11:32:08.505Z,22.33
2018-09-25T11:33:39.763Z,22.51
2018-09-25T11:35:11.281Z,22.98
2018-09-25T11:36:43.482Z,22.60
2018-09-25T11:38:14.414Z,23.00
2018-09-25T11:39:46.086Z,22.77
2018-09-25T11:41:18.940Z,22.31
2018-09-25T11:42:49.160Z,22.43
2018-09-25T11:45:53.552Z,23.32
2018-09-25T11:47:23.797Z,22.31
2018-09-25T11:48:56.171Z,23.00
2018-09-25T11:50:26.842Z,22.77
2018-09-25T11:51:59.785Z,22.77
2018-09-25T11:53:30.191Z,23.46
2018-09-25T11:56:33.150Z,23.09
2018-09-25T11:58:04.730Z,22.70
2018-09-25T12:02:39.474Z,23.76
2018-09-25T12:04:12.273Z,23.76
2018-09-25T12:05:42.636Z,24.10
2018-09-25T12:07:14.217Z,24.35
2018-09-25T12:08:45.799Z,24.22
2018-09-25T12:11:49.565Z,23.84
2018-09-25T12:13:20.543Z,24.65
2018-09-25T12:14:52.126Z,24.39
2018-09-25T12:16:23.734Z,25.14
2018-09-25T12:19:27.279Z,24.62
2018-09-25T12:24:01.628Z,25.05
2018-09-25T12:25:33.661Z,26.26
2018-09-25T12:28:36.474Z,26.43
2018-09-25T12:30:07.964Z,24.62
2018-09-25T12:31:39.543Z,24.02
2018-09-25T12:33:11.171Z,25.09
2018-09-25T12:34:43.008Z,24.03
2018-09-25T12:37:46.896Z,26.54
2018-09-25T12:39:17.658Z,27.81
2018-09-25T12:40:49.275Z,28.09
2018-09-25T12:42:20.621Z,27.28
2018-09-25T12:45:23.991Z,25.47
2018-09-25T12:46:55.676Z,24.65
2018-09-25T12:49:58.541Z,24.80
2018-09-25T12:51:30.125Z,25.57
2018-09-25T12:53:01.711Z,25.77
2018-09-25T12:54:33.817Z,26.62
2018-09-25T12:57:37.553Z,25.32
2018-09-25T12:59:08.247Z,25.24
2018-09-25T13:00:39.628Z,23.39
2018-09-25T13:02:11.211Z,22.97
2018-09-25T13:03:42.794Z,24.09
2018-09-25T13:05:14.377Z,25.13
2018-09-25T13:08:18.065Z,23.97
2018-09-25T13:09:49.329Z,23.93
2018-09-25T13:14:23.872Z,26.05
2018-09-25T13:15:55.561Z,25.57
2018-09-25T13:17:27.038Z,26.06
2018-09-25T13:18:58.622Z,26.32
2018-09-25T13:20:30.728Z,25.87
2018-09-25T13:22:02.100Z,25.14
2018-09-25T13:25:05.519Z,24.22
2018-09-25T13:26:36.690Z,23.85
2018-09-25T13:28:08.254Z,23.83
2018-09-25T13:29:39.819Z,23.68
2018-09-25T13:31:11.644Z,23.75
2018-09-25T13:32:42.932Z,23.51
2018-09-25T13:37:18.611Z,23.83
2018-09-25T13:38:49.311Z,23.35
2018-09-25T13:40:20.821Z,22.21
2018-09-25T13:41:52.565Z,23.46
2018-09-25T13:43:23.992Z,24.98
2018-09-25T13:44:55.682Z,25.23
2018-09-25T13:46:27.456Z,25.60
2018-09-25T13:47:59.950Z,23.93
2018-09-25T13:49:30.279Z,23.22
2018-09-25T13:51:02.236Z,22.79
2018-09-25T13:52:33.717Z,23.48
2018-09-25T13:54:05.356Z,24.50
2018-09-25T13:55:36.766Z,25.27
2018-09-25T13:57:08.651Z,26.88
2018-09-25T13:58:39.824Z,25.33
2018-09-25T14:00:11.444Z,24.65
2018-09-25T14:01:43.639Z,25.79
2018-09-25T14:03:14.532Z,26.10
2018-09-25T14:04:46.098Z,26.09
2018-09-25T14:06:17.901Z,24.83
2018-09-25T14:07:49.878Z,24.27
2018-09-25T14:09:21.149Z,25.46
2018-09-25T14:12:24.274Z,25.76
2018-09-25T14:13:55.869Z,27.06
2018-09-25T14:16:58.972Z,26.47
2018-09-25T14:18:30.426Z,25.94
2018-09-25T14:20:01.976Z,25.50
2018-09-25T14:21:33.651Z,26.12
2018-09-25T14:23:05.179Z,26.94
2018-09-25T14:24:36.875Z,27.67
2018-09-25T14:26:08.503Z,27.03
2018-09-25T14:27:40.602Z,26.92
2018-09-25T14:29:11.625Z,25.46
2018-09-25T14:30:43.450Z,26.73
2018-09-25T14:33:46.512Z,27.49
2018-09-25T14:35:17.803Z,27.18
2018-09-25T14:36:49.381Z,26.84
2018-09-25T14:38:21.489Z,26.81
2018-09-25T14:41:24.141Z,26.92
2018-09-25T14:45:58.894Z,27.59
2018-09-25T14:47:30.685Z,27.74
2018-09-25T14:50:34.172Z,27.65
2018-09-25T14:52:05.444Z,27.00
2018-09-25T14:53:37.123Z,27.34
2018-09-25T14:55:09.550Z,26.45
2018-09-25T14:56:40.005Z,26.43
2018-09-25T14:58:11.941Z,26.81
2018-09-25T14:59:43.775Z,27.04
2018-09-25T15:01:14.786Z,27.00
2018-09-25T15:02:46.635Z,26.97
2018-09-25T15:04:17.975Z,27.97
2018-09-25T15:07:21.114Z,27.21
2018-09-25T15:10:24.292Z,27.60
2018-09-25T15:11:56.048Z,27.57
2018-09-25T15:13:27.832Z,27.21
2018-09-25T15:14:59.220Z,27.85
2018-09-25T15:16:30.617Z,27.75
2018-09-25T15:18:02.189Z,27.39
2018-09-25T15:19:33.776Z,26.82
2018-09-25T15:22:36.946Z,26.54
2018-09-25T15:24:08.733Z,26.81
2018-09-25T15:28:43.594Z,27.14
2018-09-25T15:30:14.958Z,26.48
2018-09-25T15:33:19.628Z,27.24
2018-09-25T15:37:52.803Z,27.29
2018-09-25T15:39:24.533Z,26.65
2018-09-25T15:40:55.990Z,27.02
2018-09-25T15:44:00.244Z,28.11
2018-09-25T15:45:30.731Z,27.09
2018-09-25T15:48:34.418Z,27.10
2018-09-25T15:50:05.482Z,26.65
2018-09-25T15:51:37.271Z,26.23
2018-09-25T15:53:08.652Z,26.62
2018-09-25T15:54:40.643Z,27.09
2018-09-25T15:56:11.975Z,26.89
2018-09-25T15:57:43.406Z,26.43
2018-09-25T15:59:15.196Z,26.25
2018-09-25T16:00:48.109Z,26.20
2018-09-25T16:02:18.605Z,26.63
2018-09-25T16:03:50.056Z,26.52
2018-09-25T16:05:21.530Z,26.20
2018-09-25T16:06:52.911Z,26.28
2018-09-25T16:08:24.809Z,26.20
2018-09-25T16:09:56.519Z,25.79
2018-09-25T16:11:27.980Z,25.92
2018-09-25T16:13:00.339Z,25.03
2018-09-25T16:14:32.086Z,25.40
2018-09-25T16:17:34.206Z,26.25
2018-09-25T16:19:06.062Z,25.75
2018-09-25T16:22:09.097Z,25.60
2018-09-25T16:25:12.010Z,25.50
2018-09-25T16:26:43.745Z,26.23
2018-09-25T16:28:15.335Z,26.92
2018-09-25T16:31:18.494Z,27.43
2018-09-25T16:32:50.738Z,27.90
2018-09-25T16:34:22.204Z,27.77
2018-09-25T16:35:53.324Z,27.62
2018-09-25T16:37:24.783Z,26.81
2018-09-25T16:40:28.030Z,27.09
2018-09-25T16:41:59.335Z,26.76
2018-09-25T16:43:31.122Z,25.09
2018-09-25T16:45:02.806Z,25.97
2018-09-25T16:46:34.087Z,26.55
2018-09-25T16:48:06.165Z,26.01
2018-09-25T16:49:37.256Z,26.02
2018-09-25T16:51:08.867Z,25.75
2018-09-25T16:52:40.526Z,25.28
2018-09-25T16:54:12.530Z,25.00
2018-09-25T16:55:43.896Z,23.73
2018-09-25T16:57:15.377Z,24.77
2018-09-25T16:58:47.299Z,25.69
2018-09-25T17:00:18.647Z,25.92
2018-09-25T17:03:21.513Z,26.12
2018-09-25T17:07:58.207Z,25.06
2018-09-25T17:09:27.862Z,24.96
2018-09-25T17:10:59.434Z,25.73
2018-09-25T17:12:31.221Z,25.32
2018-09-25T17:14:02.899Z,25.14
2018-09-25T17:17:05.772Z,25.05
2018-09-25T17:18:37.348Z,26.37
2018-09-25T17:20:09.132Z,25.85
2018-09-25T17:21:40.515Z,24.45
2018-09-25T17:23:12.402Z,24.81
2018-09-25T17:24:43.902Z,24.60
2018-09-25T17:26:15.566Z,24.64
2018-09-25T17:29:19.136Z,24.58
2018-09-25T17:30:50.010Z,24.31
2018-09-25T17:32:21.896Z,24.42
2018-09-25T17:33:53.179Z,24.69
2018-09-25T17:35:24.959Z,24.83
2018-09-25T17:36:56.338Z,23.83
2018-09-25T17:38:27.920Z,23.87
2018-09-25T17:39:59.501Z,23.61
2018-09-25T17:41:31.083Z,22.55
2018-09-25T17:43:02.871Z,22.79
2018-09-25T17:44:34.492Z,22.88
2018-09-25T17:46:05.869Z,22.90
2018-09-25T17:47:37.818Z,22.55
2018-09-25T17:49:09.541Z,22.20
2018-09-25T17:50:40.791Z,22.09
2018-09-25T17:52:12.223Z,22.28
2018-09-25T17:53:43.779Z,22.18
2018-09-25T17:55:15.305Z,22.90
2018-09-25T17:56:47.110Z,22.85
2018-09-25T17:58:18.515Z,22.79
2018-09-25T17:59:50.466Z,23.28
2018-09-25T18:01:21.737Z,23.22
2018-09-25T18:02:53.621Z,23.36
2018-09-25T18:04:25.184Z,23.83
2018-09-25T18:05:56.465Z,24.09
2018-09-25T18:07:28.255Z,24.46
2018-09-25T18:08:59.920Z,24.84
2018-09-25T18:10:31.302Z,25.13
2018-09-25T18:12:03.081Z,25.00
2018-09-25T18:13:34.384Z,24.34
2018-09-25T18:15:05.881Z,24.47
2018-09-25T18:16:37.470Z,24.96
2018-09-25T18:18:09.207Z,25.09
2018-09-25T18:19:40.936Z,24.83
2018-09-25T18:21:12.344Z,24.32
2018-09-25T18:22:43.787Z,24.34
2018-09-25T18:24:15.438Z,23.39
2018-09-25T18:25:47.003Z,23.13
2018-09-25T18:27:18.947Z,23.23
2018-09-25T18:28:50.073Z,23.46
2018-09-25T18:30:21.652Z,24.34
2018-09-25T18:31:53.234Z,24.30
2018-09-25T18:33:24.934Z,24.34
2018-09-25T18:34:56.606Z,23.72
2018-09-25T18:36:27.976Z,22.68
2018-09-25T18:37:59.860Z,23.00
2018-09-25T18:39:31.140Z,23.19
2018-09-25T18:42:34.297Z,23.46
2018-09-25T18:44:06.084Z,23.50
2018-09-25T18:45:37.614Z,24.34
2018-09-25T18:47:09.043Z,23.68
2018-09-25T18:48:40.927Z,23.10
2018-09-25T18:50:12.198Z,22.73
2018-09-25T18:53:15.357Z,23.17
2018-09-25T18:54:46.935Z,23.47
2018-09-25T18:59:22.017Z,22.47
2018-09-25T19:00:53.456Z,22.57
2018-09-25T19:02:24.853Z,22.47
2018-09-25T19:03:56.411Z,22.25
2018-09-25T19:05:28.257Z,21.69
2018-09-25T19:06:59.787Z,21.53
2018-09-25T19:08:31.189Z,21.12
2018-09-25T19:10:03.557Z,21.17
2018-09-25T19:11:34.421Z,21.44
2018-09-25T19:13:06.040Z,21.49
2018-09-25T19:14:37.456Z,21.65
2018-09-25T19:16:09.607Z,21.88
2018-09-25T19:17:40.809Z,21.75
2018-09-25T19:19:12.405Z,21.46
2018-09-25T19:20:44.388Z,21.50
2018-09-25T19:22:15.631Z,21.79
2018-09-25T19:23:47.148Z,21.74
2018-09-25T19:28:21.933Z,21.82
2018-09-25T19:29:53.223Z,22.05
2018-09-25T19:31:24.964Z,22.02
2018-09-25T19:32:56.378Z,21.91
2018-09-25T19:34:28.023Z,21.80
2018-09-25T19:37:31.145Z,21.82
2018-09-25T19:39:03.384Z,21.77
2018-09-25T19:40:34.545Z,21.42
2018-09-25T19:42:06.116Z,21.47
2018-09-25T19:43:37.645Z,21.49
2018-09-25T19:45:09.643Z,21.21
2018-09-25T19:46:40.676Z,21.14
2018-09-25T19:48:12.169Z,21.43
2018-09-25T19:49:43.777Z,21.29
2018-09-25T19:52:47.131Z,21.10
2018-09-25T19:54:18.472Z,21.21
2018-09-25T19:55:50.219Z,21.13
2018-09-25T19:57:21.607Z,21.32
2018-09-25T19:58:53.229Z,21.32
2018-09-25T20:00:24.822Z,21.43
2018-09-25T20:01:56.477Z,21.44
2018-09-25T20:03:27.908Z,21.65
2018-09-25T20:04:59.503Z,21.53
2018-09-25T20:06:31.902Z,21.49
2018-09-25T20:08:03.120Z,21.50
2018-09-25T20:09:35.351Z,21.27
2018-09-25T20:11:06.207Z,21.16
2018-09-25T20:12:37.354Z,21.13
2018-09-25T20:14:09.703Z,21.10
2018-09-25T20:15:40.574Z,21.12
2018-09-25T20:17:12.366Z,21.07
2018-09-25T20:18:44.682Z,21.29
2018-09-25T20:20:17.021Z,21.24
2018-09-25T20:21:47.508Z,21.10
2018-09-25T20:23:18.946Z,21.16
2018-09-25T20:24:50.693Z,21.04
2018-09-25T20:27:53.560Z,20.98
2018-09-25T20:29:24.749Z,20.82
2018-09-25T20:30:56.700Z,20.51
2018-09-25T20:32:28.032Z,20.54
2018-09-25T20:33:59.555Z,20.70
2018-09-25T20:35:31.179Z,20.98
2018-09-25T20:37:02.821Z,21.10
2018-09-25T20:40:05.943Z,20.80
2018-09-25T20:43:09.248Z,20.57
2018-09-25T20:44:40.491Z,20.57
2018-09-25T20:46:12.359Z,20.41
2018-09-25T20:47:43.675Z,20.58
2018-09-25T20:50:46.708Z,20.72
2018-09-25T20:52:18.281Z,20.77
2018-09-25T20:53:49.897Z,20.73
2018-09-25T20:55:21.485Z,20.80
2018-09-25T20:58:24.680Z,20.79
2018-09-25T20:59:56.171Z,20.79
2018-09-25T21:01:28.055Z,20.73
2018-09-25T21:02:59.340Z,20.74
2018-09-25T21:04:30.897Z,20.82
2018-09-25T21:06:02.467Z,20.70
2018-09-25T21:07:34.021Z,20.72
2018-09-25T21:09:05.596Z,20.61
2018-09-25T21:10:37.167Z,20.66
2018-09-25T21:12:08.742Z,20.69
2018-09-25T21:13:40.316Z,20.77
2018-09-25T21:15:11.904Z,20.72
2018-09-25T21:16:43.568Z,20.59
2018-09-25T21:18:15.038Z,20.62
2018-09-25T21:19:46.657Z,20.55
2018-09-25T21:21:18.281Z,20.54
2018-09-25T21:24:21.337Z,20.61
2018-09-25T21:25:52.913Z,20.69
2018-09-25T21:27:24.687Z,20.57
2018-09-25T21:30:27.935Z,20.64
2018-09-25T21:31:59.201Z,20.55
2018-09-25T21:33:30.788Z,20.62
2018-09-25T21:35:02.356Z,20.55
2018-09-25T21:36:34.033Z,20.57
2018-09-25T21:38:05.497Z,20.59
2018-09-25T21:41:08.645Z,20.54
2018-09-25T21:42:40.220Z,20.54
2018-09-25T21:44:11.797Z,20.47
2018-09-25T21:47:14.939Z,20.50
2018-09-25T21:48:46.547Z,20.54
2018-09-25T21:50:18.092Z,20.51
2018-09-25T21:51:49.755Z,20.57
2018-09-25T21:53:21.234Z,20.39
2018-09-25T21:56:24.481Z,20.42
2018-09-25T21:57:56.179Z,20.26
2018-09-25T21:59:27.529Z,20.32
2018-09-25T22:00:59.107Z,20.31
2018-09-25T22:02:30.678Z,20.38
2018-09-25T22:04:02.249Z,20.38
2018-09-25T22:05:33.823Z,20.33
2018-09-25T22:07:05.396Z,20.32
2018-09-25T22:08:36.971Z,20.21
2018-09-25T22:10:08.543Z,20.31